Portada
METAR-TAF:

METAR-TAF

Aeropuertos :

Aeropuerto Internacional de Basora

Basora, Iraq

latitud: 30-32-56N, longitud: 47-39-45E, altitud: 1 m

Observación

El informe se hizo hace 10 minutos, a las 23:00 UTC
Viento 8 kt del oeste-noroeste
Temperatura 27°C
Humedad 30%
Presión 1007 hPa
Visibilidad: 7000 m
Polvo extendido

METAR: ORMM 172300Z 30008KT 7000 DU NSC 27/08 Q1007 NOSIG

Hora: 02:10 (23:10 UTC)

Pronóstico

El informe se hizo hace 7 horas y 10 minutos, a las 16:00 UTC
Pronóstico válido del 17 a las 18 UTC al 18 a las 18 UTC
Viento 10 kt del oeste-noroeste con ráfagas de 20 kt
Visibilidad: 2500 m
Polvo extendido
Evolucionando progresivamente
del 17 a las 19 UTC al 17 a las 21 UTC
Visibilidad: 3000 m
Polvo extendido

TAF: ORMM 171600Z 1718/1818 30010G20KT 2500 DU BECMG 1719/1721 3000 DU

Observaciones y pronósticos meteorológicos de más de 4000 aeropuertos (mensajes METAR y TAF).

Los puntos amarillos y rojos representan las estaciones disponibles.

Ponga el ratón en el punto deseado para ver el nombre de la estación.

Haga clic para ver las observaciones y los pronósticos meteorológicos.

Para cambiar el mapa : haga clic en los botones verdes con una cruz de color negro para hacer un zoom, en el botón verde con un guión para alejar o en las flechas verdes para mapas adyacentes.


METAR-TAF: